Time;durP1;ratioP1;P1;durP2;ratioP2;P2;SDS_P1;SDS_P2;PMS_P1;PMS_P2;Temp;Humidity;BMP_temperature;BMP_pressure;BME280_temperature;BME280_humidity;BME280_pressure;Samples;Min_cycle;Max_cycle;Signal;HPM_P1;HPM_P2
2023/07/09 00:02:14;;;;;;;13.73;8.90;;;;;;;23.61;83.04;101490.06;4973241;28;20062;-88
2023/07/09 00:04:41;;;;;;;17.00;9.38;;;;;;;23.58;83.03;101487.06;4973211;28;20086;-88
2023/07/09 00:07:19;;;;;;;18.38;9.40;;;;;;;23.55;81.87;101496.78;4973406;28;20085;-88
2023/07/09 00:09:45;;;;;;;19.35;10.60;;;;;;;23.40;82.48;101489.41;4973223;28;20050;-88
2023/07/09 00:12:17;;;;;;;16.37;10.17;;;;;;;23.39;81.60;101492.47;4989157;28;20019;-88
2023/07/09 00:14:46;;;;;;;21.08;11.48;;;;;;;23.30;81.43;101492.22;4989067;28;20031;-87
2023/07/09 00:17:33;;;;;;;21.30;10.37;;;;;;;23.26;81.35;101491.97;4989274;28;20096;-88
2023/07/09 00:19:59;;;;;;;18.33;10.43;;;;;;;23.23;82.62;101494.47;4989517;28;20113;-88
2023/07/09 00:22:26;;;;;;;21.85;11.57;;;;;;;23.14;83.62;101499.78;4989898;28;20117;-88
2023/07/09 00:24:56;;;;;;;20.60;10.48;;;;;;;23.03;82.89;101503.66;4974299;28;20391;-88
2023/07/09 00:27:25;;;;;;;17.83;11.38;;;;;;;22.99;83.21;101508.97;4991484;28;20038;-88
2023/07/09 00:29:53;;;;;;;20.03;11.10;;;;;;;23.04;84.86;101506.16;4977879;28;20109;-88
2023/07/09 00:32:20;;;;;;;22.52;11.73;;;;;;;23.01;86.41;101512.25;4976594;28;20463;-88
2023/07/09 00:34:49;;;;;;;17.55;10.48;;;;;;;22.94;89.15;101512.59;4976273;28;20034;-88
2023/07/09 00:37:25;;;;;;;17.13;10.23;;;;;;;22.99;86.94;101508.97;4992589;28;20027;-88
2023/07/09 00:39:51;;;;;;;19.42;11.52;;;;;;;22.97;88.74;101508.41;4978479;28;20027;-88
2023/07/09 00:42:23;;;;;;;19.73;10.83;;;;;;;22.99;88.48;101510.88;4976254;28;20438;-88
2023/07/09 00:44:58;;;;;;;17.73;11.48;;;;;;;22.97;86.85;101513.94;4992851;28;20467;-88
2023/07/09 00:48:06;;;;;;;15.15;10.57;;;;;;;22.99;85.05;101522.78;4976654;28;20534;-88
2023/07/09 00:50:53;;;;;;;20.70;11.07;;;;;;;22.94;85.22;101520.88;4970929;28;20034;-88
2023/07/09 00:53:31;;;;;;;16.53;11.00;;;;;;;22.91;86.44;101521.44;4992613;28;20039;-88
2023/07/09 00:56:14;;;;;;;18.85;11.02;;;;;;;22.84;86.45;101515.38;4992306;28;20031;-88
2023/07/09 00:58:42;;;;;;;14.88;10.77;;;;;;;22.83;89.60;101523.97;4992308;28;20034;-88
2023/07/09 01:01:11;;;;;;;18.55;11.27;;;;;;;22.77;88.54;101523.97;4975654;28;20030;-88
2023/07/09 01:04:04;;;;;;;19.00;11.45;;;;;;;22.71;87.21;101515.97;4992551;28;20035;-88
2023/07/09 01:06:54;;;;;;;15.17;10.23;;;;;;;22.67;86.47;101521.22;4989408;28;20031;-88
2023/07/09 01:09:24;;;;;;;15.00;10.10;;;;;;;22.60;88.51;101516.00;4990090;28;20047;-88
2023/07/09 01:11:49;;;;;;;13.05;9.43;;;;;;;22.59;88.36;101519.88;4976446;28;20035;-88
2023/07/09 01:14:21;;;;;;;15.10;9.60;;;;;;;22.60;89.07;101517.94;4976060;28;20057;-88
2023/07/09 01:16:56;;;;;;;13.48;8.85;;;;;;;22.59;89.00;101510.75;4975845;28;20050;-88
2023/07/09 01:19:25;;;;;;;14.30;9.35;;;;;;;22.58;90.79;101511.88;4975805;28;20118;-88
2023/07/09 01:21:54;;;;;;;18.08;9.90;;;;;;;22.62;91.97;101510.19;4959843;28;20031;-87
2023/07/09 01:24:47;;;;;;;15.90;9.88;;;;;;;22.62;89.24;101510.19;4960680;28;20069;-88
2023/07/09 01:27:17;;;;;;;16.80;10.17;;;;;;;22.58;90.94;101511.88;4975341;28;20038;-88
2023/07/09 01:29:48;;;;;;;15.98;9.90;;;;;;;22.58;90.94;101517.41;4991936;28;20037;-87
2023/07/09 01:32:18;;;;;;;15.30;10.57;;;;;;;22.56;90.76;101514.91;4975860;28;20042;-88
2023/07/09 01:34:48;;;;;;;13.55;10.27;;;;;;;22.56;89.78;101514.91;4991799;28;20038;-88
2023/07/09 01:37:20;;;;;;;18.40;9.50;;;;;;;22.56;90.90;101516.84;4991309;28;20110;-88
2023/07/09 01:39:45;;;;;;;13.60;9.70;;;;;;;22.58;90.65;101514.63;4975171;28;20065;-87
2023/07/09 01:42:13;;;;;;;13.27;9.45;;;;;;;22.56;90.72;101511.31;4976173;28;20446;-87
2023/07/09 01:44:41;;;;;;;13.52;10.07;;;;;;;22.51;88.77;101525.97;4975774;28;20368;-88
2023/07/09 01:47:06;;;;;;;12.57;9.80;;;;;;;22.42;90.02;101525.69;4959197;28;20094;-88
2023/07/09 01:49:43;;;;;;;13.55;8.73;;;;;;;22.45;89.74;101518.78;4974857;28;20031;-88
2023/07/09 01:52:13;;;;;;;14.48;8.88;;;;;;;22.41;90.16;101528.75;4975795;28;20452;-88
2023/07/09 01:54:41;;;;;;;15.30;8.85;;;;;;;22.42;89.41;101539.53;4989088;28;20031;-88
2023/07/09 01:57:40;;;;;;;12.87;8.80;;;;;;;22.37;89.56;101536.78;4975285;28;20023;-87
2023/07/09 02:00:13;;;;;;;13.88;8.82;;;;;;;22.38;91.11;101541.22;4975825;28;20074;-87
2023/07/09 02:02:52;;;;;;;;;;;;;;;;;;;;;
2023/07/09 02:05:19;;;;;;;13.98;8.25;;;;;;;22.35;91.76;101535.41;4976423;28;20371;-88
2023/07/09 02:07:46;;;;;;;14.38;9.00;;;;;;;22.31;91.54;101537.03;4974716;28;20050;-88
2023/07/09 02:10:16;;;;;;;13.67;8.60;;;;;;;22.34;90.73;101540.09;4974599;28;20034;-87
2023/07/09 02:12:51;;;;;;;;;;;;;;;;;;;;;
2023/07/09 02:15:17;;;;;;;12.73;8.57;;;;;;;22.39;92.36;101547.56;4976834;28;20045;-87
2023/07/09 02:17:43;;;;;;;13.77;8.70;;;;;;;22.39;92.53;101547.56;4990521;28;20117;-88
2023/07/09 02:20:13;;;;;;;17.42;9.75;;;;;;;22.41;91.36;101550.88;4974208;28;20447;-87
2023/07/09 02:22:40;;;;;;;13.02;8.68;;;;;;;22.37;90.63;101541.50;4974792;28;20031;-88
2023/07/09 02:25:07;;;;;;;18.45;9.43;;;;;;;22.33;91.58;101541.19;4974167;28;20038;-88
2023/07/09 02:27:35;;;;;;;29.45;10.38;;;;;;;22.45;92.68;101540.09;4974379;28;20085;-88
2023/07/09 02:30:10;;;;;;;12.47;8.97;;;;;;;22.42;92.84;101544.25;4976028;28;20030;-88
2023/07/09 02:32:37;;;;;;;14.45;8.75;;;;;;;22.37;93.35;101538.72;4959139;28;20563;-88
2023/07/09 02:35:04;;;;;;;11.60;8.55;;;;;;;22.33;93.95;101540.38;4990724;28;20038;-88
2023/07/09 02:37:33;;;;;;;12.35;8.70;;;;;;;22.29;95.11;101533.72;4958274;28;20034;-88
2023/07/09 02:39:58;;;;;;;14.73;9.13;;;;;;;22.27;95.05;101536.75;4990198;28;20483;-88
2023/07/09 02:42:24;;;;;;;14.77;9.00;;;;;;;22.27;94.98;101544.22;4990025;28;20037;-88
2023/07/09 02:44:52;;;;;;;16.17;9.20;;;;;;;22.24;94.54;101540.09;4973861;28;20114;-88
2023/07/09 02:47:18;;;;;;;12.63;8.32;;;;;;;22.20;94.08;101538.97;4990010;28;20035;-87
2023/07/09 02:49:46;;;;;;;20.23;9.13;;;;;;;22.16;94.08;101538.72;4974447;28;20037;-88
2023/07/09 02:52:20;;;;;;;13.07;9.30;;;;;;;22.15;95.33;101548.09;4957953;28;20047;-88
2023/07/09 02:54:50;;;;;;;12.88;8.82;;;;;;;22.14;96.13;101540.09;4991048;28;20031;-88
2023/07/09 02:57:22;;;;;;;12.17;9.23;;;;;;;22.03;95.72;101542.84;4975208;28;20057;-88
2023/07/09 02:59:47;;;;;;;13.75;9.77;;;;;;;22.03;96.17;101533.75;4974252;28;20062;-87
2023/07/09 03:02:13;;;;;;;13.80;8.97;;;;;;;22.01;96.91;101531.25;4989890;28;20065;-88
2023/07/09 03:04:41;;;;;;;13.40;9.32;;;;;;;22.00;96.51;101537.88;4973828;28;20034;-88
2023/07/09 03:07:07;;;;;;;12.10;9.00;;;;;;;21.96;97.22;101531.25;4958522;28;20372;-88
2023/07/09 03:09:32;;;;;;;13.90;9.00;;;;;;;21.96;97.21;101535.94;4989644;28;20137;-88
2023/07/09 03:12:00;;;;;;;15.43;9.45;;;;;;;21.92;97.37;101534.84;4989638;28;20447;-88
2023/07/09 03:14:29;;;;;;;13.95;9.50;;;;;;;21.90;97.69;101540.63;4973667;28;20121;-88
2023/07/09 03:16:55;;;;;;;15.17;9.40;;;;;;;21.89;98.06;101536.22;4973473;28;20034;-88
2023/07/09 03:19:32;;;;;;;16.35;9.57;;;;;;;21.89;98.45;101537.06;4973454;28;20030;-88
2023/07/09 03:22:01;;;;;;;14.77;9.43;;;;;;;21.85;98.05;101530.41;4973676;28;20113;-87
2023/07/09 03:27:48;;;;;;;13.85;9.70;;;;;;;21.85;99.83;101538.69;4975021;28;20041;-88
2023/07/09 03:30:19;;;;;;;16.33;9.83;;;;;;;21.83;98.83;101532.59;4973745;28;20403;-88
2023/07/09 03:32:47;;;;;;;14.43;10.20;;;;;;;21.83;99.41;101534.56;4973407;28;20026;-88
2023/07/09 03:35:18;;;;;;;13.38;9.07;;;;;;;21.82;98.42;101538.41;4990078;28;20039;-88
2023/07/09 03:37:43;;;;;;;17.13;9.95;;;;;;;21.80;98.25;101530.41;4989730;28;20093;-88
2023/07/09 03:40:19;;;;;;;13.43;9.93;;;;;;;21.80;98.79;101535.91;4973200;28;20042;-88
2023/07/09 03:42:47;;;;;;;12.90;9.45;;;;;;;21.79;98.64;101530.69;4973739;28;20474;-88
2023/07/09 03:45:13;;;;;;;15.63;9.77;;;;;;;21.77;98.96;101533.72;4989327;28;20035;-88
2023/07/09 03:47:38;;;;;;;13.13;9.90;;;;;;;21.73;98.20;101530.69;4974479;28;20046;-88
2023/07/09 03:50:09;;;;;;;15.90;10.13;;;;;;;21.76;98.73;101545.88;4974246;28;20455;-87
2023/07/09 03:52:34;;;;;;;16.13;9.73;;;;;;;21.70;99.33;101536.75;4989852;28;20035;-88
2023/07/09 03:55:06;;;;;;;17.02;9.85;;;;;;;21.68;99.57;101538.13;4989239;28;20033;-88
2023/07/09 03:57:33;;;;;;;12.63;9.50;;;;;;;21.66;100.00;101538.41;4989539;28;20037;-88
2023/07/09 03:59:59;;;;;;;13.57;10.00;;;;;;;21.64;100.00;101534.25;4973338;28;20133;-88
2023/07/09 04:02:26;;;;;;;16.40;10.30;;;;;;;21.61;100.00;101538.38;4993230;28;20106;-88
2023/07/09 04:04:52;;;;;;;15.38;10.82;;;;;;;21.58;100.00;101538.09;4961526;28;20122;-88
2023/07/09 04:07:18;;;;;;;13.50;10.50;;;;;;;21.59;100.00;101537.00;4993890;28;20515;-89
2023/07/09 04:09:45;;;;;;;17.73;10.65;;;;;;;21.59;99.91;101537.00;4996553;28;20046;-87
2023/07/09 04:12:10;;;;;;;18.03;11.10;;;;;;;21.60;100.00;101533.97;4996254;28;20133;-88
2023/07/09 04:14:36;;;;;;;14.93;10.70;;;;;;;21.66;99.92;101538.41;4979762;28;20049;-88
2023/07/09 04:17:02;;;;;;;18.63;11.23;;;;;;;21.70;99.13;101536.75;4996176;28;20479;-87
2023/07/09 04:19:36;;;;;;;19.03;10.80;;;;;;;21.73;100.00;101540.88;4996156;28;20078;-88
2023/07/09 04:22:04;;;;;;;16.90;10.57;;;;;;;21.78;100.00;101535.38;4996191;28;20121;-87
2023/07/09 04:24:31;;;;;;;15.38;10.48;;;;;;;21.84;100.00;101539.78;4979973;28;20062;-89
2023/07/09 04:26:59;;;;;;;16.58;10.38;;;;;;;21.89;100.00;101539.81;4995773;28;20062;-88
2023/07/09 04:29:25;;;;;;;16.88;10.35;;;;;;;21.94;100.00;101544.50;4996046;28;20026;-88
2023/07/09 04:31:52;;;;;;;14.27;10.47;;;;;;;21.98;100.00;101537.34;4996052;28;20053;-88
2023/07/09 04:34:18;;;;;;;17.45;10.35;;;;;;;22.01;100.00;101541.47;4980576;28;20463;-87
2023/07/09 04:36:43;;;;;;;15.13;9.83;;;;;;;22.08;100.00;101539.25;4995960;28;20032;-88
2023/07/09 04:39:09;;;;;;;17.83;11.73;;;;;;;22.11;99.87;101535.94;4995846;28;20475;-88
2023/07/09 04:41:34;;;;;;;15.77;10.63;;;;;;;22.16;99.47;101532.34;4995597;28;20080;-88
2023/07/09 04:44:00;;;;;;;16.65;11.73;;;;;;;22.21;98.93;101537.88;4996596;28;20038;-88
2023/07/09 04:46:25;;;;;;;15.80;11.13;;;;;;;22.25;98.71;101542.56;4995387;28;20489;-87
2023/07/09 04:48:51;;;;;;;18.73;12.23;;;;;;;22.32;97.44;101544.25;4995479;28;20475;-89
2023/07/09 04:51:17;;;;;;;17.05;11.30;;;;;;;22.36;97.89;101537.06;4996422;28;20026;-87
2023/07/09 04:53:45;;;;;;;15.80;11.15;;;;;;;22.44;98.18;101539.28;4979399;28;20026;-87
2023/07/09 04:56:11;;;;;;;16.90;10.97;;;;;;;22.52;97.92;101529.59;4995301;28;20018;-87
2023/07/09 04:58:39;;;;;;;16.05;11.45;;;;;;;22.58;97.43;101542.28;4979092;28;20044;-87
2023/07/09 05:01:08;;;;;;;16.05;11.55;;;;;;;22.68;95.57;101538.69;4979231;28;20041;-88
2023/07/09 05:03:34;;;;;;;16.42;11.05;;;;;;;22.72;94.54;101540.59;4979935;28;20081;-87
2023/07/09 05:06:01;;;;;;;19.23;10.90;;;;;;;22.81;93.36;101535.31;4995148;28;20034;-88
2023/07/09 05:08:30;;;;;;;14.85;10.95;;;;;;;22.89;93.40;101531.13;4978887;28;20065;-88
2023/07/09 05:11:01;;;;;;;13.50;10.32;;;;;;;22.98;92.52;101536.91;4995365;28;20390;-87
2023/07/09 05:13:29;;;;;;;15.70;10.70;;;;;;;23.04;91.27;101544.91;4995681;28;20104;-87
2023/07/09 05:15:54;;;;;;;17.43;11.13;;;;;;;23.11;91.01;101537.16;4996051;28;20438;-87
2023/07/09 05:18:20;;;;;;;21.58;10.65;;;;;;;23.21;89.80;101539.06;4996222;28;20072;-87
2023/07/09 05:20:47;;;;;;;16.80;10.60;;;;;;;23.30;89.76;101534.56;4994836;28;20030;-87
2023/07/09 05:23:15;;;;;;;16.17;9.80;;;;;;;23.41;87.86;101537.28;4995116;28;20040;-88
2023/07/09 05:25:43;;;;;;;15.77;9.60;;;;;;;23.51;87.14;101536.41;4962788;28;20486;-88
2023/07/09 05:28:13;;;;;;;12.38;9.25;;;;;;;23.59;86.52;101535.78;4979189;28;20038;-88
2023/07/09 05:30:44;;;;;;;12.77;9.40;;;;;;;23.71;85.38;101543.75;4981257;28;20148;-89
2023/07/09 05:33:17;;;;;;;14.30;9.27;;;;;;;23.82;84.45;101537.84;4997670;28;20094;-96
2023/07/09 05:35:50;;;;;;;16.42;9.38;;;;;;;23.92;83.99;101536.97;4982742;28;20159;-96
2023/07/09 05:38:15;;;;;;;11.82;9.23;;;;;;;24.02;83.11;101529.69;5004034;28;20034;-93
2023/07/09 05:40:42;;;;;;;13.73;9.93;;;;;;;24.09;82.78;101533.78;4997957;28;20030;-93
2023/07/09 05:43:11;;;;;;;15.77;9.35;;;;;;;24.19;82.85;101537.59;4963138;28;20033;-93
2023/07/09 05:45:39;;;;;;;14.20;9.35;;;;;;;24.27;82.08;101543.34;4979149;28;20058;-93
2023/07/09 05:48:12;;;;;;;16.00;9.25;;;;;;;24.34;81.81;101541.06;4996313;28;20034;-92
2023/07/09 05:50:38;;;;;;;14.57;9.30;;;;;;;24.42;81.63;101533.19;4980231;28;20362;-92
2023/07/09 05:53:03;;;;;;;15.13;9.02;;;;;;;24.47;81.16;101538.72;4996451;28;20097;-95
2023/07/09 05:55:32;;;;;;;21.50;9.20;;;;;;;24.54;80.75;101541.97;4996475;28;20445;-95
2023/07/09 05:57:57;;;;;;;65.65;11.07;;;;;;;24.62;81.04;101543.28;4980684;28;20030;-88
2023/07/09 06:00:23;;;;;;;23.17;9.37;;;;;;;24.69;79.83;101550.13;4979270;28;20049;-94
2023/07/09 06:02:49;;;;;;;15.18;8.73;;;;;;;24.76;78.77;101543.41;4961933;28;20486;-93
2023/07/09 06:05:15;;;;;;;13.43;8.70;;;;;;;24.82;78.97;101542.25;4994361;28;20088;-87
2023/07/09 06:07:40;;;;;;;12.27;8.38;;;;;;;24.91;78.26;101550.75;4995399;28;20054;-88
2023/07/09 06:10:09;;;;;;;10.50;8.43;;;;;;;24.96;77.82;101547.91;4995503;28;20066;-89
2023/07/09 06:12:35;;;;;;;12.75;8.65;;;;;;;25.05;77.27;101543.34;4994093;28;20038;-89
2023/07/09 06:15:00;;;;;;;14.02;8.63;;;;;;;25.12;76.44;101554.09;4995580;28;20486;-89
2023/07/09 06:17:26;;;;;;;13.27;8.10;;;;;;;25.18;76.31;101553.72;4995406;28;20493;-89
2023/07/09 06:19:51;;;;;;;12.73;8.10;;;;;;;25.26;76.26;101560.59;4994130;28;20132;-89
2023/07/09 06:22:17;;;;;;;14.45;8.45;;;;;;;25.32;75.84;101553.03;4994356;28;20459;-89
2023/07/09 06:24:42;;;;;;;14.27;8.03;;;;;;;25.38;76.24;101558.22;4994202;28;20117;-89
2023/07/09 06:27:09;;;;;;;15.53;8.60;;;;;;;25.46;74.87;101559.50;4994796;28;20027;-90
2023/07/09 06:29:34;;;;;;;13.32;8.23;;;;;;;25.52;74.50;101563.84;4993853;28;20058;-89
2023/07/09 06:32:00;;;;;;;14.90;8.23;;;;;;;25.61;74.54;101564.00;4993492;28;20169;-89
2023/07/09 06:34:25;;;;;;;13.00;7.93;;;;;;;25.68;74.08;101555.31;4977469;28;20023;-90
2023/07/09 06:36:51;;;;;;;11.73;7.63;;;;;;;25.78;73.76;101552.38;4961631;28;20035;-90
2023/07/09 06:39:19;;;;;;;12.37;8.07;;;;;;;25.83;73.27;101554.25;4978066;28;20059;-90
2023/07/09 06:41:47;;;;;;;21.25;7.97;;;;;;;25.89;71.60;101559.41;4995525;28;20022;-90
2023/07/09 06:44:12;;;;;;;11.27;7.68;;;;;;;25.96;71.60;101561.81;4994251;28;20134;-91
2023/07/09 06:46:38;;;;;;;10.90;7.50;;;;;;;26.01;70.77;101547.84;4977532;28;20121;-89
2023/07/09 06:49:06;;;;;;;10.30;7.40;;;;;;;26.10;71.40;101547.97;4961874;28;20030;-90
2023/07/09 06:51:32;;;;;;;9.53;7.13;;;;;;;26.18;70.01;101555.63;4994018;28;20037;-90
2023/07/09 06:53:58;;;;;;;11.35;7.18;;;;;;;26.26;69.64;101562.44;4994773;28;20462;-90
2023/07/09 06:56:23;;;;;;;11.63;7.20;;;;;;;26.35;68.97;101562.59;4994879;28;20470;-90
2023/07/09 06:58:49;;;;;;;11.20;6.60;;;;;;;26.41;68.71;101551.06;4994463;28;20274;-91
2023/07/09 07:01:15;;;;;;;10.63;7.20;;;;;;;26.50;67.46;101561.47;4994058;28;20126;-91
2023/07/09 07:03:40;;;;;;;11.63;7.13;;;;;;;26.59;67.48;101565.22;4978705;28;20045;-91
2023/07/09 07:06:09;;;;;;;11.67;7.40;;;;;;;26.66;66.34;101560.06;4961605;28;20069;-91
2023/07/09 07:08:35;;;;;;;10.60;7.07;;;;;;;26.76;66.16;101564.63;4995335;28;20494;-90
2023/07/09 07:11:02;;;;;;;13.70;6.90;;;;;;;26.81;66.00;101570.13;4994755;28;20034;-92
2023/07/09 07:13:36;;;;;;;8.80;6.93;;;;;;;26.88;65.63;101570.50;4994707;28;20379;-92
2023/07/09 07:16:04;;;;;;;9.55;7.15;;;;;;;26.96;65.17;101569.00;4977995;28;20045;-91
2023/07/09 07:18:29;;;;;;;11.90;7.57;;;;;;;27.00;62.68;101577.53;4993543;28;20105;-90
2023/07/09 07:20:55;;;;;;;15.63;7.70;;;;;;;27.01;60.42;101568.06;4994722;28;20030;-91
2023/07/09 07:23:20;;;;;;;14.55;6.38;;;;;;;27.03;58.71;101568.56;4993796;28;20061;-90
2023/07/09 07:25:46;;;;;;;12.53;6.23;;;;;;;27.03;59.35;101572.19;4976877;28;20058;-90
2023/07/09 07:28:12;;;;;;;10.65;6.43;;;;;;;27.04;60.67;101573.00;4994163;28;20058;-89
2023/07/09 07:30:45;;;;;;;13.63;6.50;;;;;;;27.05;60.53;101575.47;4976973;28;20076;-91
2023/07/09 07:33:14;;;;;;;12.87;6.90;;;;;;;27.05;58.36;101574.66;4994084;28;20479;-90
2023/07/09 07:35:42;;;;;;;11.25;6.13;;;;;;;27.11;58.44;101570.63;4997310;28;20026;-90
2023/07/09 07:38:10;;;;;;;9.07;6.05;;;;;;;27.12;58.38;101575.03;4983473;28;20045;-91
2023/07/09 07:40:43;;;;;;;11.88;6.40;;;;;;;27.14;58.16;101568.03;4999578;28;20041;-91
2023/07/09 07:43:08;;;;;;;11.95;6.38;;;;;;;27.19;58.91;101567.09;4969355;28;20113;-91
2023/07/09 07:45:34;;;;;;;11.33;6.83;;;;;;;27.22;58.98;101566.47;4999644;28;20491;-91
2023/07/09 07:47:59;;;;;;;9.73;6.27;;;;;;;27.28;59.49;101564.41;4984394;28;20034;-92
2023/07/09 07:50:26;;;;;;;9.63;6.53;;;;;;;27.37;60.18;101559.78;4983415;28;20030;-92
2023/07/09 07:52:53;;;;;;;9.63;6.53;;;;;;;27.44;59.68;101559.34;4999757;28;20394;-90
2023/07/09 07:55:19;;;;;;;8.50;6.60;;;;;;;27.51;58.96;101558.94;4983722;28;20042;-90
2023/07/09 07:57:45;;;;;;;10.38;6.88;;;;;;;27.55;58.11;101563.56;4999019;28;20396;-85
2023/07/09 08:00:11;;;;;;;10.10;7.17;;;;;;;27.60;57.71;101570.97;4951051;28;20034;-87
2023/07/09 08:02:36;;;;;;;11.60;6.95;;;;;;;27.64;58.45;101560.88;5000422;28;20482;-88
2023/07/09 08:05:02;;;;;;;9.43;6.70;;;;;;;27.71;57.80;101561.25;4983028;28;20049;-86
2023/07/09 08:07:27;;;;;;;10.20;6.33;;;;;;;27.80;57.30;101558.50;4966411;28;20442;-88
2023/07/09 08:09:53;;;;;;;9.33;6.40;;;;;;;27.83;56.74;101561.50;4983425;28;20045;-89
2023/07/09 08:12:23;;;;;;;10.73;6.80;;;;;;;27.87;56.36;101563.66;4966568;28;20043;-89
2023/07/09 08:14:49;;;;;;;8.05;6.53;;;;;;;27.92;56.56;101552.38;4999422;28;20471;-90
2023/07/09 08:17:14;;;;;;;8.77;6.60;;;;;;;27.97;56.08;101555.88;5000557;28;20035;-89
2023/07/09 08:19:52;;;;;;;13.37;6.67;;;;;;;28.07;57.27;101557.63;4999156;28;20030;-89
2023/07/09 08:22:20;;;;;;;13.77;6.30;;;;;;;28.12;55.79;101560.25;4982768;28;20033;-88
2023/07/09 08:24:46;;;;;;;9.43;6.93;;;;;;;28.16;56.14;101561.28;4983033;28;20034;-88
2023/07/09 08:27:12;;;;;;;13.03;7.00;;;;;;;28.20;55.29;101557.84;4982454;28;20022;-89
2023/07/09 08:29:37;;;;;;;11.15;7.30;;;;;;;28.24;55.45;101559.69;4966690;28;20517;-88
2023/07/09 08:32:03;;;;;;;11.80;7.10;;;;;;;28.30;55.75;101557.59;4998626;28;20037;-86
2023/07/09 08:34:29;;;;;;;11.02;7.20;;;;;;;28.42;55.86;101549.47;4950506;28;20031;-86
2023/07/09 08:36:54;;;;;;;9.43;7.03;;;;;;;28.52;55.17;101545.56;5000383;28;20109;-88
2023/07/09 08:39:20;;;;;;;12.00;7.32;;;;;;;28.64;55.79;101548.63;4983121;28;20045;-88
2023/07/09 08:42:10;;;;;;;10.03;7.10;;;;;;;28.67;55.69;101553.56;4966368;28;20466;-89
2023/07/09 08:45:02;;;;;;;14.10;7.20;;;;;;;28.68;56.08;101551.56;4982866;28;20565;-89
2023/07/09 08:47:40;;;;;;;10.35;7.50;;;;;;;28.73;54.52;101554.25;4996340;28;20033;-87
2023/07/09 08:50:15;;;;;;;8.60;6.87;;;;;;;28.76;54.92;101556.38;4995891;28;20129;-88
2023/07/09 08:52:43;;;;;;;10.70;7.25;;;;;;;28.78;54.00;101556.88;4979793;28;20023;-89
2023/07/09 08:55:11;;;;;;;11.25;7.20;;;;;;;28.84;55.05;101549.19;4995636;28;20386;-87
2023/07/09 08:57:49;;;;;;;8.95;6.80;;;;;;;29.00;55.05;101564.34;4980053;28;20035;-88
2023/07/09 09:00:22;;;;;;;14.75;7.43;;;;;;;29.13;52.99;101561.72;4995299;28;20153;-89
2023/07/09 09:03:22;;;;;;;13.40;7.70;;;;;;;29.26;53.44;101551.59;4979291;28;20030;-90
2023/07/09 09:05:49;;;;;;;11.02;8.25;;;;;;;29.44;53.93;101544.06;4964153;28;20133;-87
2023/07/09 09:08:40;;;;;;;18.00;7.30;;;;;;;29.62;54.23;101545.72;4995165;28;20085;-87
2023/07/09 09:11:45;;;;;;;10.52;7.18;;;;;;;29.77;54.28;101538.00;4979897;28;20042;-86
2023/07/09 09:14:30;;;;;;;11.02;6.88;;;;;;;29.98;53.57;101533.38;4995330;28;20077;-85
2023/07/09 09:16:56;;;;;;;9.57;7.10;;;;;;;30.14;52.61;101539.28;4979380;28;20422;-85
2023/07/09 09:19:26;;;;;;;10.73;6.93;;;;;;;30.27;51.94;101538.25;4995139;28;20022;-85
2023/07/09 09:21:59;;;;;;;10.27;7.38;;;;;;;30.25;50.73;101546.19;4995369;28;20057;-85
2023/07/09 09:24:53;;;;;;;9.55;7.22;;;;;;;30.36;51.34;101540.22;4996641;28;20462;-85
2023/07/09 09:27:18;;;;;;;16.58;7.45;;;;;;;30.43;50.17;101543.38;4978750;28;20104;-85
2023/07/09 09:29:46;;;;;;;9.87;6.30;;;;;;;30.53;50.48;101537.41;4978858;28;20026;-85
2023/07/09 09:32:22;;;;;;;11.57;6.13;;;;;;;30.51;49.35;101528.50;4979495;28;20041;-86
2023/07/09 09:34:48;;;;;;;14.87;6.83;;;;;;;30.57;48.69;101520.75;4995301;28;20027;-85
2023/07/09 09:37:31;;;;;;;10.25;6.68;;;;;;;30.67;49.86;101519.56;4978411;28;20081;-86
2023/07/09 09:39:59;;;;;;;9.00;6.50;;;;;;;30.87;47.91;101512.34;4994770;28;20026;-85
2023/07/09 09:42:27;;;;;;;12.47;6.40;;;;;;;31.05;47.88;101510.28;4978102;28;20030;-85
2023/07/09 09:44:56;;;;;;;7.97;5.82;;;;;;;31.28;47.22;101514.41;4962322;28;20046;-85
2023/07/09 09:47:26;;;;;;;11.35;6.07;;;;;;;31.34;46.21;101503.00;4995734;28;20073;-85
2023/07/09 09:49:52;;;;;;;11.23;6.03;;;;;;;31.46;45.57;101505.88;4979117;28;20035;-85
2023/07/09 09:52:18;;;;;;;9.07;5.97;;;;;;;31.63;44.58;101502.94;4995730;28;20042;-85
2023/07/09 09:54:51;;;;;;;27.55;6.15;;;;;;;31.78;45.14;101493.06;4995383;28;20057;-85
2023/07/09 09:57:24;;;;;;;9.18;5.70;;;;;;;32.02;45.64;101491.50;4978383;28;20026;-85
2023/07/09 09:59:50;;;;;;;9.27;5.72;;;;;;;32.21;43.71;101493.78;4978357;28;20046;-85
2023/07/09 10:02:22;;;;;;;8.43;5.50;;;;;;;32.41;43.81;101491.25;4995732;28;20026;-85
2023/07/09 10:04:48;;;;;;;8.80;6.17;;;;;;;32.64;42.50;101495.25;4977762;28;20072;-85
2023/07/09 10:07:34;;;;;;;11.07;5.88;;;;;;;32.72;43.35;101501.94;4961690;28;20133;-85
2023/07/09 10:10:15;;;;;;;22.98;6.03;;;;;;;32.76;42.71;101502.88;4995404;28;20172;-85
2023/07/09 10:12:52;;;;;;;8.50;5.65;;;;;;;32.93;43.59;101498.19;4978146;28;20069;-85
2023/07/09 10:15:27;;;;;;;9.40;6.30;;;;;;;33.08;41.82;101500.25;4978084;28;20467;-85
2023/07/09 10:18:24;;;;;;;10.37;6.30;;;;;;;33.13;41.70;101505.66;4978079;28;20580;-85
2023/07/09 10:21:07;;;;;;;10.50;6.25;;;;;;;33.44;42.71;101515.44;4994182;28;20038;-85
2023/07/09 10:23:39;;;;;;;10.43;6.68;;;;;;;33.80;41.97;101522.13;4994217;28;20109;-85
2023/07/09 10:26:10;;;;;;;9.00;6.20;;;;;;;34.07;41.56;101525.25;4978131;28;20030;-85
2023/07/09 10:29:14;;;;;;;10.85;6.70;;;;;;;34.11;41.04;101519.75;4993775;28;20038;-85
2023/07/09 10:31:43;;;;;;;10.60;6.33;;;;;;;34.20;40.50;101534.47;4957841;28;20042;-85
2023/07/09 10:34:26;;;;;;;41.65;8.10;;;;;;;34.38;39.03;101529.31;4977890;28;20463;-85
2023/07/09 10:37:04;;;;;;;14.50;5.80;;;;;;;34.49;40.66;101521.97;4993957;28;20442;-85
2023/07/09 10:39:34;;;;;;;11.13;6.40;;;;;;;34.55;38.61;101528.16;4977153;28;20491;-85
2023/07/09 10:42:02;;;;;;;16.20;6.45;;;;;;;34.91;37.75;101529.84;4994653;28;20033;-85
2023/07/09 10:44:43;;;;;;;11.43;6.73;;;;;;;35.18;37.42;101524.41;4993305;28;20069;-88
2023/07/09 10:47:32;;;;;;;14.43;6.07;;;;;;;34.96;37.07;101523.94;4993858;28;20379;-87
2023/07/09 10:50:01;;;;;;;13.07;5.57;;;;;;;35.07;36.81;101515.72;4966675;28;20042;-91
2023/07/09 10:52:47;;;;;;;7.22;5.85;;;;;;;35.44;36.17;101512.53;4977189;28;20414;-89
2023/07/09 10:55:28;;;;;;;10.63;6.00;;;;;;;35.50;37.58;101504.56;4977597;28;20138;-87
2023/07/09 10:58:04;;;;;;;8.07;5.90;;;;;;;35.87;35.54;101500.50;4993196;28;20112;-87
2023/07/09 11:00:38;;;;;;;8.93;6.13;;;;;;;36.20;36.55;101501.91;4977568;28;20126;-90
2023/07/09 11:03:15;;;;;;;15.30;5.90;;;;;;;35.97;35.67;101495.03;4993554;28;20113;-87
2023/07/09 11:05:41;;;;;;;11.18;6.20;;;;;;;35.75;35.51;101507.09;4977142;28;20061;-87
2023/07/09 11:08:38;;;;;;;9.75;5.95;;;;;;;35.95;36.66;101507.91;4976657;28;20487;-87
2023/07/09 11:11:10;;;;;;;12.53;5.80;;;;;;;36.46;33.96;101499.16;4976370;28;20030;-87
2023/07/09 11:13:40;;;;;;;7.72;6.07;;;;;;;37.13;33.01;101500.59;4994456;28;20037;-89
2023/07/09 11:16:12;;;;;;;12.88;6.10;;;;;;;37.68;32.40;101517.06;4992736;28;20469;-88
2023/07/09 11:18:37;;;;;;;9.25;6.05;;;;;;;37.91;32.96;101518.94;4976591;28;20124;-89
2023/07/09 11:21:17;;;;;;;11.20;5.90;;;;;;;37.88;32.13;101528.22;4976829;28;20081;-88
2023/07/09 11:23:53;;;;;;;9.75;6.25;;;;;;;38.17;32.51;101529.34;4994561;28;20045;-89
2023/07/09 11:26:30;;;;;;;12.13;6.80;;;;;;;38.92;30.81;101526.34;4977153;28;20033;-88
2023/07/09 11:29:07;;;;;;;7.82;5.80;;;;;;;39.07;30.68;101521.56;4976757;28;20037;-87
2023/07/09 11:31:43;;;;;;;8.70;6.43;;;;;;;39.49;30.91;101522.19;4976769;28;20049;-87
2023/07/09 11:34:17;;;;;;;10.88;6.25;;;;;;;39.67;29.99;101504.44;4960720;28;20386;-87
2023/07/09 11:36:55;;;;;;;11.07;6.35;;;;;;;39.48;30.40;101515.72;4993175;28;20473;-87
2023/07/09 11:39:50;;;;;;;9.57;6.45;;;;;;;39.69;30.81;101517.03;4977472;28;20177;-87